Terminal Aerodrome Forecast
Issued by NWS Sterling, VA

Home | Current Version | Previous Version | Text Only | Print | Product List | Glossary On
Versions: 1 2 3 4 5 6 7 8 9 10 11 12 13 14 15 16 17 18
851
FTUS41 KLWX 252340
TAFDCA
TAF
KDCA 252340Z 2600/2624 04012KT P6SM -DZ OVC009
     FM260300 01008KT 5SM -DZ BR OVC009
     FM260600 36006KT 4SM BR OVC004
     FM261500 33006KT P6SM OVC008
     FM261800 33005KT P6SM BKN025
     FM262100 VRB03KT P6SM SCT030=

USA.gov is the U.S. government's official web portal to all federal, state and local government web resources and services.